メインページ
METAR-TAF:

METAR-TAF

空港 :

北京首都国際空港

北京, 中華人民共和国

緯度: 39-56N, 経度: 116-17E, 海抜: 55m

現時点の気象観測

当レポートは29分前の14:00(UTC)に作成
南/南東の風 4kt、東/南東から南/南西の間で変化する
気温 31°C
湿度 79%
気圧 1003 hPa
視程10km以上
高度5000ftの雲は散在している, 積乱雲.
激しい雷雨, 小雨

METAR: ZBAA 201400Z 15002MPS 120V200 9999 -TSRA SCT050CB 31/27 Q1003 BECMG TL1440 NSW

時間: 22:29 (14:29 UTC)

予報

当レポートは1時間9分前の13:20(UTC)に作成
予報は20日の 12時(UTC)から 21日の 12時(UTC)まで有効
南/南東の風 8kt
視程: 3500m
20日の 12時(UTC)から 20日の 16時(UTC)まで一時的に
高度4000ftの雲はほとんどない, 積乱雲.
高度4000ftの千切れ雲あり
激しい雷雨, 小雨

TAF: ZBAA 201320Z 2012/2112 16004MPS 3500 BR NSC TX35/2107Z TN27/2021Z TEMPO 2012/2016 -TSRA FEW040CB BKN040

4,000以上の空港の気象観測と天気予報(METAR報とTAF報)

利用可能な観測所は地図上に黄色い丸と赤い丸で示す。

丸の上にカーソルを重ねると観測所名を参照できる。

次にクリックすると気象観測と天気予報を参照できる。

マップの切り替え:黒色「×」印の緑ボタンをクリックして拡大、「-」印の緑ボタンをクリックして縮小、緑色の三角印をクリックして隣りの地図に切り替え


METAR-TAF: